Погода Марцинекна неделю

Великопольское воеводство, Польша

19 - 25 июля
  • 19июля
    Сегодня
    +14°
    +27°
    Небольшая облачность
    ВремяПогодаТемператураВлажностьДавлениеВетер, м/сВероятность осадков
    02:00Облачно с прояснениями+16°C92 %760 мм1.7 м/с2 %
    05:00Ясно и безоблачно+14°C97 %760 мм1.9 м/с2 %
    08:00Практически безоблачно+19°C78 %760 мм0.4 м/с2 %
    11:00Облачно с прояснениями+23°C58 %760 мм1.8 м/с3 %
    14:00Небольшая облачность+25°C49 %759 мм2.0 м/с2 %
    17:00Облачно с прояснениями+26°C44 %757 мм2.3 м/с2 %
    20:00Ясно и безоблачно+24°C58 %757 мм2.3 м/с2 %
    23:00Ясно и безоблачно+18°C79 %756 мм1.9 м/с2 %
  • 20июля
    Суббота
    +15°
    +28°
    Ясно и безоблачно
    ВремяПогодаТемператураВлажностьДавлениеВетер, м/сВероятность осадков
    02:00Облачно с прояснениями+16°C92 %756 мм1.3 м/с2 %
    05:00Облачно с прояснениями+14°C97 %755 мм1.9 м/с2 %
    08:00Практически безоблачно+20°C78 %755 мм0.7 м/с2 %
    11:00Практически безоблачно+25°C55 %754 мм0.5 м/с2 %
    14:00Ясно и безоблачно+27°C43 %753 мм1.2 м/с2 %
    17:00Ясно и безоблачно+27°C37 %752 мм2.2 м/с2 %
    20:00Ясно и безоблачно+26°C47 %751 мм3.2 м/с2 %
    23:00Ясно и безоблачно+20°C59 %751 мм2.1 м/с2 %
  • 21июля
    Воскресенье
    +16°
    +30°
    Практически безоблачно
    ВремяПогодаТемператураВлажностьДавлениеВетер, м/сВероятность осадков
    02:00Ясно и безоблачно+17°C77 %751 мм1.8 м/с2 %
    05:00Ясно и безоблачно+16°C86 %751 мм1.8 м/с2 %
    08:00Ясно и безоблачно+21°C71 %751 мм1.9 м/с2 %
    11:00Ясно и безоблачно+26°C47 %751 мм1.6 м/с2 %
    14:00Практически безоблачно+29°C39 %750 мм1.5 м/с2 %
    17:00Облачно с прояснениями+29°C38 %749 мм2.7 м/с2 %
    20:00Ясно и безоблачно+26°C54 %749 мм1.5 м/с2 %
    23:00Облачно с прояснениями+22°C57 %750 мм3.4 м/с2 %
  • 22июля
    Понедельник
    +14°
    +29°
    Облачно с прояснениями
    ВремяПогодаТемператураВлажностьДавлениеВетер, м/сВероятность осадков
    02:00Практически безоблачно+19°C70 %750 мм2.8 м/с2 %
    05:00Ясно и безоблачно+17°C87 %750 мм1.6 м/с2 %
    08:00Ясно и безоблачно+21°C71 %750 мм1.9 м/с2 %
    11:00Практически безоблачно+28°C43 %750 мм1.8 м/с9 %
    14:00Облачно с прояснениями+29°C35 %750 мм1.9 м/с26 %
    17:00Пасмурно, ливень+22°C78 %751 мм2.9 м/с53 %
    20:00Небольшая облачность, ливень+21°C87 %752 мм2.3 м/с60 %
    23:00Небольшая облачность+19°C93 %753 мм4.3 м/с42 %
  • 23июля
    Вторник
    +14°
    +24°
    Ясно и безоблачно
    ВремяПогодаТемператураВлажностьДавлениеВетер, м/сВероятность осадков
    02:00Ясно и безоблачно+17°C94 %754 мм3.6 м/с35 %
    05:00Ясно и безоблачно+15°C95 %755 мм2.7 м/с29 %
    08:00Ясно и безоблачно+18°C83 %755 мм2.8 м/с26 %
    11:00Практически безоблачно+21°C57 %755 мм3.0 м/с26 %
    14:00Ясно и безоблачно+23°C46 %755 мм2.5 м/с31 %
    17:00Практически безоблачно+24°C42 %754 мм1.9 м/с25 %
    20:00Ясно и безоблачно+23°C56 %754 мм1.1 м/с19 %
    23:00Практически безоблачно+18°C69 %754 мм1.1 м/с11 %
Мы используем cookies
Соглашаюсь